sensor_id;sensor_type;location;lat;lon;timestamp;P1;durP1;ratioP1;P2;durP2;ratioP2
43893;SDS011;29556;50.846;4.442;2022-12-07T00:01:12;3.63;;;1.80;;
43893;SDS011;29556;50.846;4.442;2022-12-07T00:03:43;2.50;;;1.63;;
43893;SDS011;29556;50.846;4.442;2022-12-07T00:06:11;3.70;;;1.27;;
43893;SDS011;29556;50.846;4.442;2022-12-07T00:08:38;4.50;;;1.23;;
43893;SDS011;29556;50.846;4.442;2022-12-07T00:16:43;4.70;;;1.50;;
43893;SDS011;29556;50.846;4.442;2022-12-07T00:19:09;4.53;;;1.67;;
43893;SDS011;29556;50.846;4.442;2022-12-07T00:21:37;3.13;;;1.35;;
43893;SDS011;29556;50.846;4.442;2022-12-07T00:24:03;2.95;;;1.15;;
43893;SDS011;29556;50.846;4.442;2022-12-07T00:26:31;2.45;;;1.30;;
43893;SDS011;29556;50.846;4.442;2022-12-07T00:28:59;1.55;;;1.45;;
43893;SDS011;29556;50.846;4.442;2022-12-07T00:31:27;5.72;;;1.58;;
43893;SDS011;29556;50.846;4.442;2022-12-07T00:33:54;1.45;;;1.30;;
43893;SDS011;29556;50.846;4.442;2022-12-07T00:36:22;6.45;;;2.08;;
43893;SDS011;29556;50.846;4.442;2022-12-07T00:38:49;4.22;;;1.50;;
43893;SDS011;29556;50.846;4.442;2022-12-07T00:41:16;6.10;;;1.83;;
43893;SDS011;29556;50.846;4.442;2022-12-07T00:43:47;2.03;;;1.48;;
43893;SDS011;29556;50.846;4.442;2022-12-07T00:46:13;4.82;;;1.48;;
43893;SDS011;29556;50.846;4.442;2022-12-07T00:48:40;3.97;;;1.48;;
43893;SDS011;29556;50.846;4.442;2022-12-07T00:51:06;1.67;;;1.25;;
43893;SDS011;29556;50.846;4.442;2022-12-07T00:53:36;2.95;;;1.88;;
43893;SDS011;29556;50.846;4.442;2022-12-07T00:56:09;2.42;;;1.63;;
43893;SDS011;29556;50.846;4.442;2022-12-07T00:58:38;2.53;;;1.27;;
43893;SDS011;29556;50.846;4.442;2022-12-07T01:01:04;3.97;;;2.28;;
43893;SDS011;29556;50.846;4.442;2022-12-07T01:03:31;2.33;;;1.13;;
43893;SDS011;29556;50.846;4.442;2022-12-07T01:05:56;5.55;;;1.65;;
43893;SDS011;29556;50.846;4.442;2022-12-07T01:08:23;3.95;;;1.83;;
43893;SDS011;29556;50.846;4.442;2022-12-07T01:10:56;3.70;;;1.90;;
43893;SDS011;29556;50.846;4.442;2022-12-07T01:13:26;4.68;;;1.73;;
43893;SDS011;29556;50.846;4.442;2022-12-07T01:15:55;1.92;;;1.33;;
43893;SDS011;29556;50.846;4.442;2022-12-07T01:18:22;3.17;;;1.75;;
43893;SDS011;29556;50.846;4.442;2022-12-07T01:20:56;3.08;;;1.67;;
43893;SDS011;29556;50.846;4.442;2022-12-07T01:23:26;2.70;;;1.67;;
43893;SDS011;29556;50.846;4.442;2022-12-07T01:25:59;4.38;;;1.90;;
43893;SDS011;29556;50.846;4.442;2022-12-07T01:28:27;3.42;;;1.52;;
43893;SDS011;29556;50.846;4.442;2022-12-07T01:31:00;1.90;;;1.35;;
43893;SDS011;29556;50.846;4.442;2022-12-07T01:33:28;3.85;;;1.88;;
43893;SDS011;29556;50.846;4.442;2022-12-07T01:36:06;3.10;;;1.50;;
43893;SDS011;29556;50.846;4.442;2022-12-07T01:38:39;3.67;;;1.95;;
43893;SDS011;29556;50.846;4.442;2022-12-07T01:41:05;5.35;;;1.80;;
43893;SDS011;29556;50.846;4.442;2022-12-07T01:43:32;4.15;;;1.77;;
43893;SDS011;29556;50.846;4.442;2022-12-07T01:45:59;2.60;;;1.38;;
43893;SDS011;29556;50.846;4.442;2022-12-07T01:48:35;4.60;;;1.90;;
43893;SDS011;29556;50.846;4.442;2022-12-07T01:51:05;5.13;;;1.95;;
43893;SDS011;29556;50.846;4.442;2022-12-07T01:53:35;6.93;;;2.07;;
43893;SDS011;29556;50.846;4.442;2022-12-07T01:56:03;3.33;;;1.23;;
43893;SDS011;29556;50.846;4.442;2022-12-07T01:58:32;3.22;;;1.42;;
43893;SDS011;29556;50.846;4.442;2022-12-07T02:00:58;7.13;;;1.85;;
43893;SDS011;29556;50.846;4.442;2022-12-07T02:03:26;3.72;;;1.52;;
43893;SDS011;29556;50.846;4.442;2022-12-07T02:05:56;7.72;;;1.85;;
43893;SDS011;29556;50.846;4.442;2022-12-07T02:08:24;5.72;;;1.92;;
43893;SDS011;29556;50.846;4.442;2022-12-07T02:10:50;5.05;;;1.58;;
43893;SDS011;29556;50.846;4.442;2022-12-07T02:13:20;3.75;;;1.80;;
43893;SDS011;29556;50.846;4.442;2022-12-07T02:30:10;7.10;;;1.58;;
43893;SDS011;29556;50.846;4.442;2022-12-07T02:33:00;3.13;;;1.10;;
43893;SDS011;29556;50.846;4.442;2022-12-07T02:38:16;2.67;;;1.38;;
43893;SDS011;29556;50.846;4.442;2022-12-07T02:41:06;2.53;;;1.35;;
43893;SDS011;29556;50.846;4.442;2022-12-07T02:43:43;8.07;;;1.45;;
43893;SDS011;29556;50.846;4.442;2022-12-07T02:46:16;4.35;;;2.03;;
43893;SDS011;29556;50.846;4.442;2022-12-07T02:48:44;5.63;;;1.77;;
43893;SDS011;29556;50.846;4.442;2022-12-07T02:51:11;2.97;;;1.67;;
43893;SDS011;29556;50.846;4.442;2022-12-07T02:53:38;3.10;;;1.40;;
43893;SDS011;29556;50.846;4.442;2022-12-07T03:04:32;2.42;;;1.17;;
43893;SDS011;29556;50.846;4.442;2022-12-07T03:10:03;4.05;;;1.85;;
43893;SDS011;29556;50.846;4.442;2022-12-07T03:13:15;3.92;;;1.75;;
43893;SDS011;29556;50.846;4.442;2022-12-07T03:15:43;2.50;;;1.25;;
43893;SDS011;29556;50.846;4.442;2022-12-07T03:18:20;3.35;;;1.13;;
43893;SDS011;29556;50.846;4.442;2022-12-07T03:20:49;1.42;;;1.00;;
43893;SDS011;29556;50.846;4.442;2022-12-07T03:23:18;3.20;;;1.23;;
43893;SDS011;29556;50.846;4.442;2022-12-07T03:25:47;5.13;;;1.08;;
43893;SDS011;29556;50.846;4.442;2022-12-07T03:28:16;3.05;;;1.17;;
43893;SDS011;29556;50.846;4.442;2022-12-07T03:30:46;2.97;;;1.50;;
43893;SDS011;29556;50.846;4.442;2022-12-07T03:33:13;3.72;;;1.33;;
43893;SDS011;29556;50.846;4.442;2022-12-07T03:38:46;5.47;;;1.25;;
43893;SDS011;29556;50.846;4.442;2022-12-07T03:41:22;1.70;;;1.08;;
43893;SDS011;29556;50.846;4.442;2022-12-07T03:43:51;3.85;;;1.00;;
43893;SDS011;29556;50.846;4.442;2022-12-07T03:46:27;4.85;;;1.02;;
43893;SDS011;29556;50.846;4.442;2022-12-07T03:49:07;2.33;;;1.40;;
43893;SDS011;29556;50.846;4.442;2022-12-07T03:51:50;2.10;;;0.93;;
43893;SDS011;29556;50.846;4.442;2022-12-07T03:54:26;2.55;;;1.42;;
43893;SDS011;29556;50.846;4.442;2022-12-07T03:57:02;2.78;;;1.17;;
43893;SDS011;29556;50.846;4.442;2022-12-07T03:59:29;0.82;;;0.82;;
43893;SDS011;29556;50.846;4.442;2022-12-07T04:01:56;3.15;;;1.13;;
43893;SDS011;29556;50.846;4.442;2022-12-07T04:04:29;3.05;;;1.10;;
43893;SDS011;29556;50.846;4.442;2022-12-07T04:06:54;1.88;;;0.88;;
43893;SDS011;29556;50.846;4.442;2022-12-07T04:09:20;2.85;;;1.30;;
43893;SDS011;29556;50.846;4.442;2022-12-07T04:11:46;3.22;;;1.67;;
43893;SDS011;29556;50.846;4.442;2022-12-07T04:14:12;1.27;;;0.95;;
43893;SDS011;29556;50.846;4.442;2022-12-07T04:16:44;3.33;;;1.30;;
43893;SDS011;29556;50.846;4.442;2022-12-07T04:19:12;1.55;;;1.02;;
43893;SDS011;29556;50.846;4.442;2022-12-07T04:21:38;2.13;;;1.05;;
43893;SDS011;29556;50.846;4.442;2022-12-07T04:24:04;4.28;;;1.13;;
43893;SDS011;29556;50.846;4.442;2022-12-07T04:26:30;1.85;;;0.90;;
43893;SDS011;29556;50.846;4.442;2022-12-07T04:28:56;2.10;;;1.23;;
43893;SDS011;29556;50.846;4.442;2022-12-07T04:31:22;1.15;;;0.82;;
43893;SDS011;29556;50.846;4.442;2022-12-07T04:33:47;6.32;;;1.45;;
43893;SDS011;29556;50.846;4.442;2022-12-07T04:36:13;5.03;;;1.08;;
43893;SDS011;29556;50.846;4.442;2022-12-07T04:38:38;3.35;;;1.23;;
43893;SDS011;29556;50.846;4.442;2022-12-07T04:41:08;1.73;;;0.80;;
43893;SDS011;29556;50.846;4.442;2022-12-07T04:43:34;1.00;;;0.82;;
43893;SDS011;29556;50.846;4.442;2022-12-07T04:46:00;1.70;;;1.17;;
43893;SDS011;29556;50.846;4.442;2022-12-07T04:48:26;3.15;;;1.08;;
43893;SDS011;29556;50.846;4.442;2022-12-07T04:50:52;1.55;;;1.05;;
43893;SDS011;29556;50.846;4.442;2022-12-07T04:53:18;8.15;;;2.08;;
43893;SDS011;29556;50.846;4.442;2022-12-07T04:55:45;1.95;;;1.00;;
43893;SDS011;29556;50.846;4.442;2022-12-07T04:58:11;2.47;;;1.40;;
43893;SDS011;29556;50.846;4.442;2022-12-07T05:00:37;5.50;;;1.00;;
43893;SDS011;29556;50.846;4.442;2022-12-07T05:03:03;2.80;;;1.42;;
43893;SDS011;29556;50.846;4.442;2022-12-07T05:05:29;2.42;;;1.55;;
43893;SDS011;29556;50.846;4.442;2022-12-07T05:07:54;2.92;;;1.10;;
43893;SDS011;29556;50.846;4.442;2022-12-07T05:10:21;3.95;;;1.63;;
43893;SDS011;29556;50.846;4.442;2022-12-07T05:12:47;1.58;;;1.02;;
43893;SDS011;29556;50.846;4.442;2022-12-07T05:15:13;5.85;;;1.50;;
43893;SDS011;29556;50.846;4.442;2022-12-07T05:17:40;7.65;;;1.33;;
43893;SDS011;29556;50.846;4.442;2022-12-07T05:20:06;2.28;;;0.82;;
43893;SDS011;29556;50.846;4.442;2022-12-07T05:22:32;2.63;;;1.45;;
43893;SDS011;29556;50.846;4.442;2022-12-07T05:24:58;2.13;;;1.98;;
43893;SDS011;29556;50.846;4.442;2022-12-07T05:27:24;3.58;;;1.63;;
43893;SDS011;29556;50.846;4.442;2022-12-07T05:29:50;3.42;;;1.13;;
43893;SDS011;29556;50.846;4.442;2022-12-07T05:32:16;1.52;;;1.05;;
43893;SDS011;29556;50.846;4.442;2022-12-07T05:34:42;2.67;;;1.10;;
43893;SDS011;29556;50.846;4.442;2022-12-07T05:37:08;1.58;;;1.48;;
43893;SDS011;29556;50.846;4.442;2022-12-07T05:39:33;2.35;;;1.13;;
43893;SDS011;29556;50.846;4.442;2022-12-07T05:41:59;3.55;;;1.30;;
43893;SDS011;29556;50.846;4.442;2022-12-07T05:44:38;2.60;;;1.17;;
43893;SDS011;29556;50.846;4.442;2022-12-07T05:47:09;2.28;;;1.52;;
43893;SDS011;29556;50.846;4.442;2022-12-07T05:49:39;3.38;;;0.90;;
43893;SDS011;29556;50.846;4.442;2022-12-07T05:52:11;6.80;;;1.80;;
43893;SDS011;29556;50.846;4.442;2022-12-07T05:54:36;1.25;;;1.00;;
43893;SDS011;29556;50.846;4.442;2022-12-07T05:57:02;4.65;;;1.05;;
43893;SDS011;29556;50.846;4.442;2022-12-07T05:59:27;3.38;;;1.20;;
43893;SDS011;29556;50.846;4.442;2022-12-07T06:01:58;2.40;;;1.13;;
43893;SDS011;29556;50.846;4.442;2022-12-07T06:06:53;2.88;;;1.02;;
43893;SDS011;29556;50.846;4.442;2022-12-07T06:09:20;7.30;;;1.30;;
43893;SDS011;29556;50.846;4.442;2022-12-07T06:11:47;1.67;;;1.10;;
43893;SDS011;29556;50.846;4.442;2022-12-07T06:14:31;1.73;;;0.73;;
43893;SDS011;29556;50.846;4.442;2022-12-07T06:16:58;1.85;;;0.68;;
43893;SDS011;29556;50.846;4.442;2022-12-07T06:19:24;5.85;;;1.80;;
43893;SDS011;29556;50.846;4.442;2022-12-07T06:21:49;1.77;;;1.02;;
43893;SDS011;29556;50.846;4.442;2022-12-07T06:24:16;2.70;;;1.20;;
43893;SDS011;29556;50.846;4.442;2022-12-07T06:26:42;1.83;;;1.48;;
43893;SDS011;29556;50.846;4.442;2022-12-07T06:29:08;1.92;;;0.60;;
43893;SDS011;29556;50.846;4.442;2022-12-07T06:31:35;3.83;;;1.42;;
43893;SDS011;29556;50.846;4.442;2022-12-07T06:34:01;2.03;;;1.55;;
43893;SDS011;29556;50.846;4.442;2022-12-07T06:36:31;1.80;;;0.90;;
43893;SDS011;29556;50.846;4.442;2022-12-07T06:38:57;2.65;;;0.77;;
43893;SDS011;29556;50.846;4.442;2022-12-07T06:41:24;2.00;;;1.15;;
43893;SDS011;29556;50.846;4.442;2022-12-07T06:43:50;2.60;;;1.10;;
43893;SDS011;29556;50.846;4.442;2022-12-07T06:46:16;1.33;;;1.23;;
43893;SDS011;29556;50.846;4.442;2022-12-07T06:48:44;8.05;;;1.70;;
43893;SDS011;29556;50.846;4.442;2022-12-07T06:51:09;6.28;;;1.90;;
43893;SDS011;29556;50.846;4.442;2022-12-07T06:53:35;4.50;;;2.08;;
43893;SDS011;29556;50.846;4.442;2022-12-07T06:56:02;1.65;;;1.30;;
43893;SDS011;29556;50.846;4.442;2022-12-07T06:58:28;2.72;;;1.38;;
43893;SDS011;29556;50.846;4.442;2022-12-07T07:00:54;3.28;;;1.40;;
43893;SDS011;29556;50.846;4.442;2022-12-07T07:03:20;1.55;;;1.40;;
43893;SDS011;29556;50.846;4.442;2022-12-07T07:05:45;2.55;;;1.35;;
43893;SDS011;29556;50.846;4.442;2022-12-07T07:08:11;3.63;;;1.55;;
43893;SDS011;29556;50.846;4.442;2022-12-07T07:10:37;2.92;;;1.77;;
43893;SDS011;29556;50.846;4.442;2022-12-07T07:13:03;1.40;;;1.30;;
43893;SDS011;29556;50.846;4.442;2022-12-07T07:15:29;4.13;;;1.70;;
43893;SDS011;29556;50.846;4.442;2022-12-07T07:17:55;5.03;;;1.00;;
43893;SDS011;29556;50.846;4.442;2022-12-07T07:20:21;3.10;;;1.30;;
43893;SDS011;29556;50.846;4.442;2022-12-07T07:22:47;1.55;;;0.98;;
43893;SDS011;29556;50.846;4.442;2022-12-07T07:25:13;2.40;;;1.35;;
43893;SDS011;29556;50.846;4.442;2022-12-07T07:27:39;5.30;;;1.73;;
43893;SDS011;29556;50.846;4.442;2022-12-07T07:30:05;2.33;;;1.63;;
43893;SDS011;29556;50.846;4.442;2022-12-07T07:32:32;2.90;;;1.13;;
43893;SDS011;29556;50.846;4.442;2022-12-07T07:34:58;5.28;;;1.77;;
43893;SDS011;29556;50.846;4.442;2022-12-07T07:37:24;5.05;;;1.42;;
43893;SDS011;29556;50.846;4.442;2022-12-07T07:39:50;2.03;;;1.25;;
43893;SDS011;29556;50.846;4.442;2022-12-07T07:42:16;2.90;;;1.23;;
43893;SDS011;29556;50.846;4.442;2022-12-07T07:44:41;2.78;;;1.23;;
43893;SDS011;29556;50.846;4.442;2022-12-07T07:47:07;4.70;;;1.45;;
43893;SDS011;29556;50.846;4.442;2022-12-07T07:49:32;2.15;;;1.38;;
43893;SDS011;29556;50.846;4.442;2022-12-07T07:51:58;3.45;;;1.40;;
43893;SDS011;29556;50.846;4.442;2022-12-07T07:54:24;2.67;;;1.73;;
43893;SDS011;29556;50.846;4.442;2022-12-07T07:56:49;2.70;;;1.73;;
43893;SDS011;29556;50.846;4.442;2022-12-07T07:59:15;1.35;;;0.90;;
43893;SDS011;29556;50.846;4.442;2022-12-07T08:01:41;1.35;;;1.25;;
43893;SDS011;29556;50.846;4.442;2022-12-07T08:04:06;3.33;;;1.10;;
43893;SDS011;29556;50.846;4.442;2022-12-07T08:06:32;3.55;;;1.20;;
43893;SDS011;29556;50.846;4.442;2022-12-07T08:08:58;3.08;;;2.13;;
43893;SDS011;29556;50.846;4.442;2022-12-07T08:11:24;2.10;;;1.17;;
43893;SDS011;29556;50.846;4.442;2022-12-07T08:13:50;2.17;;;1.30;;
43893;SDS011;29556;50.846;4.442;2022-12-07T08:16:16;2.55;;;1.08;;
43893;SDS011;29556;50.846;4.442;2022-12-07T08:18:42;1.85;;;1.00;;
43893;SDS011;29556;50.846;4.442;2022-12-07T08:21:12;1.85;;;1.48;;
43893;SDS011;29556;50.846;4.442;2022-12-07T08:23:39;2.33;;;1.60;;
43893;SDS011;29556;50.846;4.442;2022-12-07T08:26:14;4.38;;;1.95;;
43893;SDS011;29556;50.846;4.442;2022-12-07T08:28:41;1.70;;;1.45;;
43893;SDS011;29556;50.846;4.442;2022-12-07T08:31:11;3.88;;;1.40;;
43893;SDS011;29556;50.846;4.442;2022-12-07T08:33:40;1.65;;;1.15;;
43893;SDS011;29556;50.846;4.442;2022-12-07T08:36:07;4.93;;;2.03;;
43893;SDS011;29556;50.846;4.442;2022-12-07T08:38:35;2.35;;;0.95;;
43893;SDS011;29556;50.846;4.442;2022-12-07T08:41:02;3.10;;;1.55;;
43893;SDS011;29556;50.846;4.442;2022-12-07T08:43:28;1.88;;;0.98;;
43893;SDS011;29556;50.846;4.442;2022-12-07T08:46:05;2.20;;;1.10;;
43893;SDS011;29556;50.846;4.442;2022-12-07T08:48:34;7.70;;;1.70;;
43893;SDS011;29556;50.846;4.442;2022-12-07T08:51:04;1.58;;;1.40;;
43893;SDS011;29556;50.846;4.442;2022-12-07T08:53:29;3.25;;;1.33;;
43893;SDS011;29556;50.846;4.442;2022-12-07T08:55:56;1.48;;;1.15;;
43893;SDS011;29556;50.846;4.442;2022-12-07T08:58:24;1.92;;;1.23;;
43893;SDS011;29556;50.846;4.442;2022-12-07T09:00:50;2.50;;;1.13;;
43893;SDS011;29556;50.846;4.442;2022-12-07T09:03:15;2.63;;;1.50;;
43893;SDS011;29556;50.846;4.442;2022-12-07T09:05:41;2.15;;;1.25;;
43893;SDS011;29556;50.846;4.442;2022-12-07T09:08:08;1.55;;;1.13;;
43893;SDS011;29556;50.846;4.442;2022-12-07T09:10:34;3.40;;;1.35;;
43893;SDS011;29556;50.846;4.442;2022-12-07T09:12:59;2.45;;;1.35;;
43893;SDS011;29556;50.846;4.442;2022-12-07T09:15:25;3.60;;;1.42;;
43893;SDS011;29556;50.846;4.442;2022-12-07T09:17:54;1.80;;;0.85;;
43893;SDS011;29556;50.846;4.442;2022-12-07T09:20:21;2.65;;;0.93;;
43893;SDS011;29556;50.846;4.442;2022-12-07T09:22:47;1.52;;;1.10;;
43893;SDS011;29556;50.846;4.442;2022-12-07T09:25:13;1.92;;;0.90;;
43893;SDS011;29556;50.846;4.442;2022-12-07T09:27:38;1.42;;;1.27;;
43893;SDS011;29556;50.846;4.442;2022-12-07T09:30:05;0.75;;;0.75;;
43893;SDS011;29556;50.846;4.442;2022-12-07T09:32:31;5.35;;;0.95;;
43893;SDS011;29556;50.846;4.442;2022-12-07T09:34:57;2.30;;;0.88;;
43893;SDS011;29556;50.846;4.442;2022-12-07T09:37:23;2.33;;;0.70;;
43893;SDS011;29556;50.846;4.442;2022-12-07T09:39:48;2.70;;;1.02;;
43893;SDS011;29556;50.846;4.442;2022-12-07T09:42:32;0.68;;;0.60;;
43893;SDS011;29556;50.846;4.442;2022-12-07T09:45:11;0.57;;;0.57;;
43893;SDS011;29556;50.846;4.442;2022-12-07T09:47:45;4.95;;;0.82;;
43893;SDS011;29556;50.846;4.442;2022-12-07T09:50:15;4.32;;;1.02;;
43893;SDS011;29556;50.846;4.442;2022-12-07T09:52:44;0.52;;;0.50;;
43893;SDS011;29556;50.846;4.442;2022-12-07T09:55:13;0.80;;;0.80;;
43893;SDS011;29556;50.846;4.442;2022-12-07T09:57:41;1.75;;;0.80;;
43893;SDS011;29556;50.846;4.442;2022-12-07T10:00:12;3.70;;;1.60;;
43893;SDS011;29556;50.846;4.442;2022-12-07T10:03:03;3.65;;;1.10;;
43893;SDS011;29556;50.846;4.442;2022-12-07T10:08:02;6.00;;;0.80;;
43893;SDS011;29556;50.846;4.442;2022-12-07T10:10:33;1.88;;;0.57;;
43893;SDS011;29556;50.846;4.442;2022-12-07T10:13:04;1.63;;;0.77;;
43893;SDS011;29556;50.846;4.442;2022-12-07T10:15:42;1.38;;;0.70;;
43893;SDS011;29556;50.846;4.442;2022-12-07T10:21:00;1.75;;;0.65;;
43893;SDS011;29556;50.846;4.442;2022-12-07T10:23:42;3.35;;;2.00;;
43893;SDS011;29556;50.846;4.442;2022-12-07T10:29:01;1.30;;;0.80;;
43893;SDS011;29556;50.846;4.442;2022-12-07T10:31:38;1.13;;;1.02;;
43893;SDS011;29556;50.846;4.442;2022-12-07T10:34:22;1.20;;;0.70;;
43893;SDS011;29556;50.846;4.442;2022-12-07T10:37:06;2.63;;;0.98;;
43893;SDS011;29556;50.846;4.442;2022-12-07T10:42:18;4.25;;;1.92;;
43893;SDS011;29556;50.846;4.442;2022-12-07T10:53:35;1.13;;;0.90;;
43893;SDS011;29556;50.846;4.442;2022-12-07T10:59:12;3.05;;;0.98;;
43893;SDS011;29556;50.846;4.442;2022-12-07T11:08:00;4.13;;;0.80;;
43893;SDS011;29556;50.846;4.442;2022-12-07T11:13:18;0.60;;;0.47;;
43893;SDS011;29556;50.846;4.442;2022-12-07T11:18:58;0.60;;;0.60;;
43893;SDS011;29556;50.846;4.442;2022-12-07T11:24:15;2.22;;;0.88;;
43893;SDS011;29556;50.846;4.442;2022-12-07T11:35:03;3.38;;;1.08;;
43893;SDS011;29556;50.846;4.442;2022-12-07T11:37:35;2.20;;;0.93;;
43893;SDS011;29556;50.846;4.442;2022-12-07T11:45:56;5.13;;;0.90;;
43893;SDS011;29556;50.846;4.442;2022-12-07T11:48:41;1.58;;;0.50;;
43893;SDS011;29556;50.846;4.442;2022-12-07T11:51:35;0.30;;;0.30;;
43893;SDS011;29556;50.846;4.442;2022-12-07T11:54:05;1.27;;;0.77;;
43893;SDS011;29556;50.846;4.442;2022-12-07T11:57:18;1.98;;;0.80;;
43893;SDS011;29556;50.846;4.442;2022-12-07T11:59:52;1.35;;;0.60;;
43893;SDS011;29556;50.846;4.442;2022-12-07T12:02:37;0.60;;;0.50;;
43893;SDS011;29556;50.846;4.442;2022-12-07T12:07:40;2.17;;;1.65;;
43893;SDS011;29556;50.846;4.442;2022-12-07T12:10:23;1.08;;;0.82;;
43893;SDS011;29556;50.846;4.442;2022-12-07T12:21:19;1.65;;;0.50;;
43893;SDS011;29556;50.846;4.442;2022-12-07T12:23:55;0.20;;;0.20;;
43893;SDS011;29556;50.846;4.442;2022-12-07T12:26:23;0.50;;;0.50;;
43893;SDS011;29556;50.846;4.442;2022-12-07T12:28:56;1.75;;;0.88;;
43893;SDS011;29556;50.846;4.442;2022-12-07T12:31:37;0.73;;;0.50;;
43893;SDS011;29556;50.846;4.442;2022-12-07T12:42:45;0.20;;;0.20;;
43893;SDS011;29556;50.846;4.442;2022-12-07T12:48:02;4.03;;;0.50;;
43893;SDS011;29556;50.846;4.442;2022-12-07T12:52:57;1.08;;;0.38;;
43893;SDS011;29556;50.846;4.442;2022-12-07T12:55:47;1.58;;;0.35;;
43893;SDS011;29556;50.846;4.442;2022-12-07T12:58:35;0.20;;;0.20;;
43893;SDS011;29556;50.846;4.442;2022-12-07T13:04:01;2.85;;;0.40;;
43893;SDS011;29556;50.846;4.442;2022-12-07T13:06:38;0.50;;;0.50;;
43893;SDS011;29556;50.846;4.442;2022-12-07T13:09:15;1.55;;;0.55;;
43893;SDS011;29556;50.846;4.442;2022-12-07T13:11:46;0.33;;;0.33;;
43893;SDS011;29556;50.846;4.442;2022-12-07T13:17:06;0.77;;;0.45;;
43893;SDS011;29556;50.846;4.442;2022-12-07T13:22:54;0.35;;;0.30;;
43893;SDS011;29556;50.846;4.442;2022-12-07T13:28:09;3.45;;;0.50;;
43893;SDS011;29556;50.846;4.442;2022-12-07T13:30:43;0.95;;;0.95;;
43893;SDS011;29556;50.846;4.442;2022-12-07T13:33:17;1.50;;;0.25;;
43893;SDS011;29556;50.846;4.442;2022-12-07T13:35:44;0.80;;;0.57;;
43893;SDS011;29556;50.846;4.442;2022-12-07T13:38:22;8.48;;;0.90;;
43893;SDS011;29556;50.846;4.442;2022-12-07T13:43:27;0.82;;;0.22;;
43893;SDS011;29556;50.846;4.442;2022-12-07T13:45:57;1.25;;;0.47;;
43893;SDS011;29556;50.846;4.442;2022-12-07T13:51:00;0.30;;;0.30;;
43893;SDS011;29556;50.846;4.442;2022-12-07T13:53:28;0.45;;;0.30;;
43893;SDS011;29556;50.846;4.442;2022-12-07T13:55:56;0.20;;;0.20;;
43893;SDS011;29556;50.846;4.442;2022-12-07T13:58:26;4.80;;;0.30;;
43893;SDS011;29556;50.846;4.442;2022-12-07T14:00:55;1.58;;;0.65;;
43893;SDS011;29556;50.846;4.442;2022-12-07T14:03:29;0.90;;;0.50;;
43893;SDS011;29556;50.846;4.442;2022-12-07T14:06:10;1.25;;;0.38;;
43893;SDS011;29556;50.846;4.442;2022-12-07T14:08:40;0.28;;;0.28;;
43893;SDS011;29556;50.846;4.442;2022-12-07T14:11:06;0.38;;;0.25;;
43893;SDS011;29556;50.846;4.442;2022-12-07T14:13:38;0.47;;;0.30;;
43893;SDS011;29556;50.846;4.442;2022-12-07T14:19:04;0.28;;;0.20;;
43893;SDS011;29556;50.846;4.442;2022-12-07T14:21:33;0.30;;;0.13;;
43893;SDS011;29556;50.846;4.442;2022-12-07T14:26:35;1.85;;;0.38;;
43893;SDS011;29556;50.846;4.442;2022-12-07T14:31:47;0.40;;;0.08;;
43893;SDS011;29556;50.846;4.442;2022-12-07T14:34:13;1.75;;;0.40;;
43893;SDS011;29556;50.846;4.442;2022-12-07T14:36:39;0.90;;;0.35;;
43893;SDS011;29556;50.846;4.442;2022-12-07T14:39:05;0.25;;;0.25;;
43893;SDS011;29556;50.846;4.442;2022-12-07T14:41:30;0.22;;;0.20;;
43893;SDS011;29556;50.846;4.442;2022-12-07T14:44:14;3.60;;;0.38;;
43893;SDS011;29556;50.846;4.442;2022-12-07T14:46:41;0.40;;;0.40;;
43893;SDS011;29556;50.846;4.442;2022-12-07T14:49:06;6.35;;;0.57;;
43893;SDS011;29556;50.846;4.442;2022-12-07T14:51:33;1.70;;;0.65;;
43893;SDS011;29556;50.846;4.442;2022-12-07T14:54:01;0.32;;;0.32;;
43893;SDS011;29556;50.846;4.442;2022-12-07T14:56:26;3.90;;;0.60;;
43893;SDS011;29556;50.846;4.442;2022-12-07T14:58:52;0.35;;;0.30;;
43893;SDS011;29556;50.846;4.442;2022-12-07T15:01:19;0.70;;;0.30;;
43893;SDS011;29556;50.846;4.442;2022-12-07T15:03:45;0.65;;;0.20;;
43893;SDS011;29556;50.846;4.442;2022-12-07T15:06:16;0.20;;;0.20;;
43893;SDS011;29556;50.846;4.442;2022-12-07T15:08:43;0.20;;;0.20;;
43893;SDS011;29556;50.846;4.442;2022-12-07T15:11:16;0.20;;;0.20;;
43893;SDS011;29556;50.846;4.442;2022-12-07T15:13:43;0.32;;;0.25;;
43893;SDS011;29556;50.846;4.442;2022-12-07T15:16:27;0.40;;;0.20;;
43893;SDS011;29556;50.846;4.442;2022-12-07T15:18:52;0.40;;;0.25;;
43893;SDS011;29556;50.846;4.442;2022-12-07T15:21:18;0.22;;;0.10;;
43893;SDS011;29556;50.846;4.442;2022-12-07T15:23:43;0.50;;;0.25;;
43893;SDS011;29556;50.846;4.442;2022-12-07T15:26:11;0.55;;;0.30;;
43893;SDS011;29556;50.846;4.442;2022-12-07T15:28:40;1.73;;;0.47;;
43893;SDS011;29556;50.846;4.442;2022-12-07T15:31:13;0.38;;;0.22;;
43893;SDS011;29556;50.846;4.442;2022-12-07T15:33:40;1.52;;;0.35;;
43893;SDS011;29556;50.846;4.442;2022-12-07T15:36:06;0.30;;;0.20;;
43893;SDS011;29556;50.846;4.442;2022-12-07T15:38:32;0.10;;;0.10;;
43893;SDS011;29556;50.846;4.442;2022-12-07T15:40:57;0.75;;;0.20;;
43893;SDS011;29556;50.846;4.442;2022-12-07T15:43:23;0.20;;;0.20;;
43893;SDS011;29556;50.846;4.442;2022-12-07T15:46:08;1.15;;;0.40;;
43893;SDS011;29556;50.846;4.442;2022-12-07T15:48:33;0.90;;;0.55;;
43893;SDS011;29556;50.846;4.442;2022-12-07T15:51:06;0.30;;;0.20;;
43893;SDS011;29556;50.846;4.442;2022-12-07T15:53:34;0.47;;;0.28;;
43893;SDS011;29556;50.846;4.442;2022-12-07T15:56:01;0.00;;;0.00;;
43893;SDS011;29556;50.846;4.442;2022-12-07T15:58:31;4.07;;;0.30;;
43893;SDS011;29556;50.846;4.442;2022-12-07T16:00:56;1.02;;;0.52;;
43893;SDS011;29556;50.846;4.442;2022-12-07T16:03:23;0.57;;;0.30;;
43893;SDS011;29556;50.846;4.442;2022-12-07T16:05:49;0.47;;;0.40;;
43893;SDS011;29556;50.846;4.442;2022-12-07T16:08:16;1.00;;;0.40;;
43893;SDS011;29556;50.846;4.442;2022-12-07T16:10:41;1.30;;;0.40;;
43893;SDS011;29556;50.846;4.442;2022-12-07T16:13:08;1.45;;;0.52;;
43893;SDS011;29556;50.846;4.442;2022-12-07T16:15:39;1.38;;;0.60;;
43893;SDS011;29556;50.846;4.442;2022-12-07T16:18:05;2.95;;;1.25;;
43893;SDS011;29556;50.846;4.442;2022-12-07T16:20:31;0.35;;;0.20;;
43893;SDS011;29556;50.846;4.442;2022-12-07T16:22:57;2.85;;;0.50;;
43893;SDS011;29556;50.846;4.442;2022-12-07T16:25:24;1.52;;;0.30;;
43893;SDS011;29556;50.846;4.442;2022-12-07T16:27:51;0.65;;;0.30;;
43893;SDS011;29556;50.846;4.442;2022-12-07T16:30:17;1.40;;;0.35;;
43893;SDS011;29556;50.846;4.442;2022-12-07T16:32:43;0.82;;;0.63;;
43893;SDS011;29556;50.846;4.442;2022-12-07T16:35:09;0.63;;;0.40;;
43893;SDS011;29556;50.846;4.442;2022-12-07T16:37:36;1.50;;;0.95;;
43893;SDS011;29556;50.846;4.442;2022-12-07T16:40:02;0.80;;;0.77;;
43893;SDS011;29556;50.846;4.442;2022-12-07T16:42:34;1.48;;;0.88;;
43893;SDS011;29556;50.846;4.442;2022-12-07T16:45:00;3.30;;;0.63;;
43893;SDS011;29556;50.846;4.442;2022-12-07T16:47:26;2.13;;;0.50;;
43893;SDS011;29556;50.846;4.442;2022-12-07T16:49:52;0.40;;;0.40;;
43893;SDS011;29556;50.846;4.442;2022-12-07T16:52:18;2.38;;;0.77;;
43893;SDS011;29556;50.846;4.442;2022-12-07T16:54:45;0.95;;;0.45;;
43893;SDS011;29556;50.846;4.442;2022-12-07T16:57:12;3.45;;;1.20;;
43893;SDS011;29556;50.846;4.442;2022-12-07T16:59:38;5.03;;;0.68;;
43893;SDS011;29556;50.846;4.442;2022-12-07T17:02:04;1.50;;;0.60;;
43893;SDS011;29556;50.846;4.442;2022-12-07T17:04:32;1.42;;;0.80;;
43893;SDS011;29556;50.846;4.442;2022-12-07T17:06:58;1.90;;;0.40;;
43893;SDS011;29556;50.846;4.442;2022-12-07T17:09:24;2.25;;;0.70;;
43893;SDS011;29556;50.846;4.442;2022-12-07T17:11:50;5.38;;;0.68;;
43893;SDS011;29556;50.846;4.442;2022-12-07T17:14:16;1.15;;;0.65;;
43893;SDS011;29556;50.846;4.442;2022-12-07T17:17:00;0.88;;;0.50;;
43893;SDS011;29556;50.846;4.442;2022-12-07T17:19:26;3.35;;;0.52;;
43893;SDS011;29556;50.846;4.442;2022-12-07T17:21:52;0.43;;;0.43;;